sensor_id;sensor_type;location;lat;lon;timestamp;P1;durP1;ratioP1;P2;durP2;ratioP2
19006;SDS011;9636;47.382;8.480;2023-05-20T00:01:43;2.85;;;2.60;;
19006;SDS011;9636;47.382;8.480;2023-05-20T00:04:10;2.67;;;2.47;;
19006;SDS011;9636;47.382;8.480;2023-05-20T00:06:37;2.90;;;2.70;;
19006;SDS011;9636;47.382;8.480;2023-05-20T00:09:04;3.60;;;2.50;;
19006;SDS011;9636;47.382;8.480;2023-05-20T00:11:30;2.40;;;2.20;;
19006;SDS011;9636;47.382;8.480;2023-05-20T00:13:59;2.80;;;2.60;;
19006;SDS011;9636;47.382;8.480;2023-05-20T00:16:26;3.40;;;2.83;;
19006;SDS011;9636;47.382;8.480;2023-05-20T00:18:52;3.20;;;2.90;;
19006;SDS011;9636;47.382;8.480;2023-05-20T00:21:20;3.03;;;2.50;;
19006;SDS011;9636;47.382;8.480;2023-05-20T00:23:47;2.63;;;2.37;;
19006;SDS011;9636;47.382;8.480;2023-05-20T00:26:14;2.60;;;2.40;;
19006;SDS011;9636;47.382;8.480;2023-05-20T00:28:41;2.63;;;2.43;;
19006;SDS011;9636;47.382;8.480;2023-05-20T00:31:09;2.83;;;2.60;;
19006;SDS011;9636;47.382;8.480;2023-05-20T00:33:37;3.00;;;2.80;;
19006;SDS011;9636;47.382;8.480;2023-05-20T00:36:04;2.73;;;2.53;;
19006;SDS011;9636;47.382;8.480;2023-05-20T00:38:32;2.93;;;2.73;;
19006;SDS011;9636;47.382;8.480;2023-05-20T00:40:58;2.80;;;2.60;;
19006;SDS011;9636;47.382;8.480;2023-05-20T00:43:25;2.97;;;2.57;;
19006;SDS011;9636;47.382;8.480;2023-05-20T00:45:52;3.10;;;2.60;;
19006;SDS011;9636;47.382;8.480;2023-05-20T00:48:21;2.90;;;2.60;;
19006;SDS011;9636;47.382;8.480;2023-05-20T00:50:48;3.13;;;2.80;;
19006;SDS011;9636;47.382;8.480;2023-05-20T00:53:15;2.80;;;2.60;;
19006;SDS011;9636;47.382;8.480;2023-05-20T00:55:42;2.20;;;2.10;;
19006;SDS011;9636;47.382;8.480;2023-05-20T00:58:10;2.70;;;2.50;;
19006;SDS011;9636;47.382;8.480;2023-05-20T01:00:37;2.87;;;2.67;;
19006;SDS011;9636;47.382;8.480;2023-05-20T01:03:04;2.90;;;2.70;;
19006;SDS011;9636;47.382;8.480;2023-05-20T01:05:32;2.97;;;2.77;;
19006;SDS011;9636;47.382;8.480;2023-05-20T01:07:59;2.90;;;2.70;;
19006;SDS011;9636;47.382;8.480;2023-05-20T01:10:26;2.97;;;2.70;;
19006;SDS011;9636;47.382;8.480;2023-05-20T01:12:56;3.13;;;2.83;;
19006;SDS011;9636;47.382;8.480;2023-05-20T01:15:26;2.83;;;2.63;;
19006;SDS011;9636;47.382;8.480;2023-05-20T01:17:54;2.73;;;2.53;;
19006;SDS011;9636;47.382;8.480;2023-05-20T01:20:25;2.67;;;2.47;;
19006;SDS011;9636;47.382;8.480;2023-05-20T01:22:57;2.53;;;2.33;;
19006;SDS011;9636;47.382;8.480;2023-05-20T01:25:24;2.87;;;2.67;;
19006;SDS011;9636;47.382;8.480;2023-05-20T01:27:51;2.60;;;2.40;;
19006;SDS011;9636;47.382;8.480;2023-05-20T01:30:20;2.50;;;2.30;;
19006;SDS011;9636;47.382;8.480;2023-05-20T01:32:49;3.10;;;2.80;;
19006;SDS011;9636;47.382;8.480;2023-05-20T01:35:19;2.57;;;2.37;;
19006;SDS011;9636;47.382;8.480;2023-05-20T01:37:47;2.90;;;2.70;;
19006;SDS011;9636;47.382;8.480;2023-05-20T01:40:18;2.90;;;2.70;;
19006;SDS011;9636;47.382;8.480;2023-05-20T01:42:46;3.30;;;3.00;;
19006;SDS011;9636;47.382;8.480;2023-05-20T01:45:16;2.90;;;2.70;;
19006;SDS011;9636;47.382;8.480;2023-05-20T01:47:44;2.90;;;2.70;;
19006;SDS011;9636;47.382;8.480;2023-05-20T01:50:10;2.90;;;2.70;;
19006;SDS011;9636;47.382;8.480;2023-05-20T01:52:37;2.70;;;2.50;;
19006;SDS011;9636;47.382;8.480;2023-05-20T01:55:04;3.03;;;2.80;;
19006;SDS011;9636;47.382;8.480;2023-05-20T01:57:33;3.10;;;2.80;;
19006;SDS011;9636;47.382;8.480;2023-05-20T02:00:00;2.90;;;2.70;;
19006;SDS011;9636;47.382;8.480;2023-05-20T02:02:27;2.73;;;2.53;;
19006;SDS011;9636;47.382;8.480;2023-05-20T02:04:54;2.67;;;2.47;;
19006;SDS011;9636;47.382;8.480;2023-05-20T02:07:21;2.70;;;2.50;;
19006;SDS011;9636;47.382;8.480;2023-05-20T02:09:47;2.97;;;2.77;;
19006;SDS011;9636;47.382;8.480;2023-05-20T02:12:14;3.10;;;2.50;;
19006;SDS011;9636;47.382;8.480;2023-05-20T02:14:42;3.30;;;3.00;;
19006;SDS011;9636;47.382;8.480;2023-05-20T02:17:10;2.80;;;2.60;;
19006;SDS011;9636;47.382;8.480;2023-05-20T02:19:38;3.10;;;2.80;;
19006;SDS011;9636;47.382;8.480;2023-05-20T02:22:05;3.23;;;2.93;;
19006;SDS011;9636;47.382;8.480;2023-05-20T02:24:32;2.60;;;2.40;;
19006;SDS011;9636;47.382;8.480;2023-05-20T02:26:59;2.70;;;2.50;;
19006;SDS011;9636;47.382;8.480;2023-05-20T02:29:27;3.13;;;2.83;;
19006;SDS011;9636;47.382;8.480;2023-05-20T02:31:55;2.70;;;2.50;;
19006;SDS011;9636;47.382;8.480;2023-05-20T02:34:22;3.10;;;2.80;;
19006;SDS011;9636;47.382;8.480;2023-05-20T02:36:49;2.90;;;2.70;;
19006;SDS011;9636;47.382;8.480;2023-05-20T02:39:16;2.57;;;2.37;;
19006;SDS011;9636;47.382;8.480;2023-05-20T02:41:43;3.10;;;2.80;;
19006;SDS011;9636;47.382;8.480;2023-05-20T02:44:10;3.00;;;2.80;;
19006;SDS011;9636;47.382;8.480;2023-05-20T02:46:37;3.10;;;2.80;;
19006;SDS011;9636;47.382;8.480;2023-05-20T02:49:05;2.67;;;2.47;;
19006;SDS011;9636;47.382;8.480;2023-05-20T02:51:32;3.30;;;3.00;;
19006;SDS011;9636;47.382;8.480;2023-05-20T02:53:58;3.07;;;2.87;;
19006;SDS011;9636;47.382;8.480;2023-05-20T02:56:25;2.77;;;2.57;;
19006;SDS011;9636;47.382;8.480;2023-05-20T02:58:52;3.20;;;2.97;;
19006;SDS011;9636;47.382;8.480;2023-05-20T03:01:19;3.27;;;3.00;;
19006;SDS011;9636;47.382;8.480;2023-05-20T03:03:47;3.33;;;3.03;;
19006;SDS011;9636;47.382;8.480;2023-05-20T03:06:15;2.97;;;2.77;;
19006;SDS011;9636;47.382;8.480;2023-05-20T03:08:42;3.00;;;2.70;;
19006;SDS011;9636;47.382;8.480;2023-05-20T03:11:09;3.10;;;2.90;;
19006;SDS011;9636;47.382;8.480;2023-05-20T03:13:36;2.77;;;2.57;;
19006;SDS011;9636;47.382;8.480;2023-05-20T03:16:02;3.20;;;3.00;;
19006;SDS011;9636;47.382;8.480;2023-05-20T03:18:30;2.80;;;2.60;;
19006;SDS011;9636;47.382;8.480;2023-05-20T03:20:57;3.20;;;2.90;;
19006;SDS011;9636;47.382;8.480;2023-05-20T03:23:25;2.87;;;2.67;;
19006;SDS011;9636;47.382;8.480;2023-05-20T03:25:52;2.70;;;2.50;;
19006;SDS011;9636;47.382;8.480;2023-05-20T03:28:19;3.47;;;2.73;;
19006;SDS011;9636;47.382;8.480;2023-05-20T03:30:45;2.87;;;2.67;;
19006;SDS011;9636;47.382;8.480;2023-05-20T03:33:12;3.03;;;2.83;;
19006;SDS011;9636;47.382;8.480;2023-05-20T03:35:40;3.33;;;3.03;;
19006;SDS011;9636;47.382;8.480;2023-05-20T03:38:06;2.80;;;2.60;;
19006;SDS011;9636;47.382;8.480;2023-05-20T03:40:35;2.97;;;2.73;;
19006;SDS011;9636;47.382;8.480;2023-05-20T03:43:02;3.10;;;2.80;;
19006;SDS011;9636;47.382;8.480;2023-05-20T03:45:28;2.70;;;2.50;;
19006;SDS011;9636;47.382;8.480;2023-05-20T03:47:57;3.40;;;2.70;;
19006;SDS011;9636;47.382;8.480;2023-05-20T03:50:24;3.00;;;2.80;;
19006;SDS011;9636;47.382;8.480;2023-05-20T03:52:51;3.00;;;2.80;;
19006;SDS011;9636;47.382;8.480;2023-05-20T03:55:18;3.13;;;2.83;;
19006;SDS011;9636;47.382;8.480;2023-05-20T03:57:46;2.87;;;2.67;;
19006;SDS011;9636;47.382;8.480;2023-05-20T04:00:13;3.00;;;2.80;;
19006;SDS011;9636;47.382;8.480;2023-05-20T04:02:41;2.80;;;2.60;;
19006;SDS011;9636;47.382;8.480;2023-05-20T04:05:08;3.40;;;3.10;;
19006;SDS011;9636;47.382;8.480;2023-05-20T04:07:35;3.20;;;2.90;;
19006;SDS011;9636;47.382;8.480;2023-05-20T04:10:03;3.10;;;2.90;;
19006;SDS011;9636;47.382;8.480;2023-05-20T04:12:30;3.00;;;2.70;;
19006;SDS011;9636;47.382;8.480;2023-05-20T04:15:01;3.23;;;2.77;;
19006;SDS011;9636;47.382;8.480;2023-05-20T04:17:28;3.20;;;2.90;;
19006;SDS011;9636;47.382;8.480;2023-05-20T04:19:56;3.27;;;3.00;;
19006;SDS011;9636;47.382;8.480;2023-05-20T04:22:23;3.00;;;2.80;;
19006;SDS011;9636;47.382;8.480;2023-05-20T04:24:50;3.23;;;3.00;;
19006;SDS011;9636;47.382;8.480;2023-05-20T04:27:17;3.53;;;3.00;;
19006;SDS011;9636;47.382;8.480;2023-05-20T04:29:44;3.03;;;2.80;;
19006;SDS011;9636;47.382;8.480;2023-05-20T04:32:13;3.00;;;2.80;;
19006;SDS011;9636;47.382;8.480;2023-05-20T04:34:43;3.00;;;2.80;;
19006;SDS011;9636;47.382;8.480;2023-05-20T04:37:10;3.10;;;2.90;;
19006;SDS011;9636;47.382;8.480;2023-05-20T04:39:37;3.33;;;3.03;;
19006;SDS011;9636;47.382;8.480;2023-05-20T04:42:04;2.90;;;2.70;;
19006;SDS011;9636;47.382;8.480;2023-05-20T04:44:31;2.93;;;2.73;;
19006;SDS011;9636;47.382;8.480;2023-05-20T04:46:58;2.97;;;2.70;;
19006;SDS011;9636;47.382;8.480;2023-05-20T04:49:26;3.10;;;2.80;;
19006;SDS011;9636;47.382;8.480;2023-05-20T04:51:54;2.90;;;2.70;;
19006;SDS011;9636;47.382;8.480;2023-05-20T04:54:20;3.00;;;2.80;;
19006;SDS011;9636;47.382;8.480;2023-05-20T04:56:47;3.40;;;3.10;;
19006;SDS011;9636;47.382;8.480;2023-05-20T04:59:15;3.20;;;3.00;;
19006;SDS011;9636;47.382;8.480;2023-05-20T05:01:42;3.27;;;2.97;;
19006;SDS011;9636;47.382;8.480;2023-05-20T05:04:09;3.03;;;2.83;;
19006;SDS011;9636;47.382;8.480;2023-05-20T05:06:37;3.50;;;3.20;;
19006;SDS011;9636;47.382;8.480;2023-05-20T05:09:04;3.27;;;3.00;;
19006;SDS011;9636;47.382;8.480;2023-05-20T05:11:32;3.20;;;2.90;;
19006;SDS011;9636;47.382;8.480;2023-05-20T05:13:58;3.20;;;2.77;;
19006;SDS011;9636;47.382;8.480;2023-05-20T05:16:25;3.30;;;2.90;;
19006;SDS011;9636;47.382;8.480;2023-05-20T05:18:52;3.20;;;3.00;;
19006;SDS011;9636;47.382;8.480;2023-05-20T05:21:19;3.10;;;2.90;;
19006;SDS011;9636;47.382;8.480;2023-05-20T05:23:47;3.20;;;2.90;;
19006;SDS011;9636;47.382;8.480;2023-05-20T05:26:14;3.27;;;2.97;;
19006;SDS011;9636;47.382;8.480;2023-05-20T05:28:43;3.13;;;2.90;;
19006;SDS011;9636;47.382;8.480;2023-05-20T05:31:09;3.30;;;3.00;;
19006;SDS011;9636;47.382;8.480;2023-05-20T05:33:36;3.23;;;3.03;;
19006;SDS011;9636;47.382;8.480;2023-05-20T05:36:03;3.30;;;3.00;;
19006;SDS011;9636;47.382;8.480;2023-05-20T05:38:30;3.37;;;3.07;;
19006;SDS011;9636;47.382;8.480;2023-05-20T05:40:58;3.47;;;3.07;;
19006;SDS011;9636;47.382;8.480;2023-05-20T05:43:26;3.50;;;3.20;;
19006;SDS011;9636;47.382;8.480;2023-05-20T05:45:52;3.40;;;3.10;;
19006;SDS011;9636;47.382;8.480;2023-05-20T05:48:20;3.10;;;2.90;;
19006;SDS011;9636;47.382;8.480;2023-05-20T05:50:46;3.65;;;3.05;;
19006;SDS011;9636;47.382;8.480;2023-05-20T05:53:13;3.15;;;2.95;;
19006;SDS011;9636;47.382;8.480;2023-05-20T05:55:40;3.70;;;3.13;;
19006;SDS011;9636;47.382;8.480;2023-05-20T05:58:08;3.67;;;3.30;;
19006;SDS011;9636;47.382;8.480;2023-05-20T06:00:35;3.37;;;3.03;;
19006;SDS011;9636;47.382;8.480;2023-05-20T06:03:02;3.23;;;2.93;;
19006;SDS011;9636;47.382;8.480;2023-05-20T06:05:29;3.20;;;2.97;;
19006;SDS011;9636;47.382;8.480;2023-05-20T06:07:56;3.10;;;2.90;;
19006;SDS011;9636;47.382;8.480;2023-05-20T06:10:23;3.03;;;2.80;;
19006;SDS011;9636;47.382;8.480;2023-05-20T06:12:50;3.30;;;3.00;;
19006;SDS011;9636;47.382;8.480;2023-05-20T06:15:18;3.67;;;3.20;;
19006;SDS011;9636;47.382;8.480;2023-05-20T06:17:45;3.80;;;3.50;;
19006;SDS011;9636;47.382;8.480;2023-05-20T06:20:12;3.37;;;3.00;;
19006;SDS011;9636;47.382;8.480;2023-05-20T06:22:38;3.38;;;3.08;;
19006;SDS011;9636;47.382;8.480;2023-05-20T06:25:06;3.33;;;3.03;;
19006;SDS011;9636;47.382;8.480;2023-05-20T06:27:33;3.40;;;3.10;;
19006;SDS011;9636;47.382;8.480;2023-05-20T06:30:00;3.30;;;3.00;;
19006;SDS011;9636;47.382;8.480;2023-05-20T06:32:28;3.30;;;3.00;;
19006;SDS011;9636;47.382;8.480;2023-05-20T06:34:55;3.43;;;3.03;;
19006;SDS011;9636;47.382;8.480;2023-05-20T06:37:22;2.75;;;2.55;;
19006;SDS011;9636;47.382;8.480;2023-05-20T06:39:50;3.10;;;2.80;;
19006;SDS011;9636;47.382;8.480;2023-05-20T06:42:18;3.43;;;3.13;;
19006;SDS011;9636;47.382;8.480;2023-05-20T06:44:47;3.03;;;2.83;;
19006;SDS011;9636;47.382;8.480;2023-05-20T06:47:15;3.60;;;3.27;;
19006;SDS011;9636;47.382;8.480;2023-05-20T06:49:44;3.27;;;2.97;;
19006;SDS011;9636;47.382;8.480;2023-05-20T06:52:11;3.10;;;2.90;;
19006;SDS011;9636;47.382;8.480;2023-05-20T06:54:38;3.13;;;2.93;;
19006;SDS011;9636;47.382;8.480;2023-05-20T06:57:05;3.23;;;2.90;;
19006;SDS011;9636;47.382;8.480;2023-05-20T06:59:32;3.30;;;3.00;;
19006;SDS011;9636;47.382;8.480;2023-05-20T07:01:59;3.10;;;2.77;;
19006;SDS011;9636;47.382;8.480;2023-05-20T07:04:26;3.10;;;2.80;;
19006;SDS011;9636;47.382;8.480;2023-05-20T07:06:54;3.33;;;3.03;;
19006;SDS011;9636;47.382;8.480;2023-05-20T07:09:21;3.27;;;2.97;;
19006;SDS011;9636;47.382;8.480;2023-05-20T07:11:48;3.47;;;3.17;;
19006;SDS011;9636;47.382;8.480;2023-05-20T07:14:15;3.00;;;2.80;;
19006;SDS011;9636;47.382;8.480;2023-05-20T07:16:50;3.70;;;3.10;;
19006;SDS011;9636;47.382;8.480;2023-05-20T07:19:17;4.03;;;2.73;;
19006;SDS011;9636;47.382;8.480;2023-05-20T07:21:44;3.47;;;3.03;;
19006;SDS011;9636;47.382;8.480;2023-05-20T07:24:17;3.30;;;3.00;;
19006;SDS011;9636;47.382;8.480;2023-05-20T07:26:49;3.33;;;3.03;;
19006;SDS011;9636;47.382;8.480;2023-05-20T07:29:18;2.87;;;2.67;;
19006;SDS011;9636;47.382;8.480;2023-05-20T07:31:46;3.28;;;3.00;;
19006;SDS011;9636;47.382;8.480;2023-05-20T07:34:15;3.40;;;3.10;;
19006;SDS011;9636;47.382;8.480;2023-05-20T07:36:49;3.28;;;3.00;;
19006;SDS011;9636;47.382;8.480;2023-05-20T07:39:21;3.00;;;2.70;;
19006;SDS011;9636;47.382;8.480;2023-05-20T07:41:48;3.00;;;2.80;;
19006;SDS011;9636;47.382;8.480;2023-05-20T07:44:15;2.92;;;2.72;;
19006;SDS011;9636;47.382;8.480;2023-05-20T07:46:45;3.67;;;3.28;;
19006;SDS011;9636;47.382;8.480;2023-05-20T07:52:33;3.13;;;2.83;;
19006;SDS011;9636;47.382;8.480;2023-05-20T07:55:04;3.40;;;3.10;;
19006;SDS011;9636;47.382;8.480;2023-05-20T07:57:31;3.22;;;2.92;;
19006;SDS011;9636;47.382;8.480;2023-05-20T08:00:01;3.22;;;3.03;;
19006;SDS011;9636;47.382;8.480;2023-05-20T08:02:39;3.05;;;2.75;;
19006;SDS011;9636;47.382;8.480;2023-05-20T08:05:06;5.80;;;2.92;;
19006;SDS011;9636;47.382;8.480;2023-05-20T08:07:38;3.20;;;2.90;;
19006;SDS011;9636;47.382;8.480;2023-05-20T08:10:08;3.35;;;3.08;;
19006;SDS011;9636;47.382;8.480;2023-05-20T08:12:35;3.38;;;3.03;;
19006;SDS011;9636;47.382;8.480;2023-05-20T08:15:07;2.95;;;2.67;;
19006;SDS011;9636;47.382;8.480;2023-05-20T08:17:34;3.30;;;3.00;;
19006;SDS011;9636;47.382;8.480;2023-05-20T08:20:03;2.92;;;2.72;;
19006;SDS011;9636;47.382;8.480;2023-05-20T08:22:33;3.10;;;2.80;;
19006;SDS011;9636;47.382;8.480;2023-05-20T08:28:17;3.28;;;2.92;;
19006;SDS011;9636;47.382;8.480;2023-05-20T08:31:13;3.15;;;2.85;;
19006;SDS011;9636;47.382;8.480;2023-05-20T08:35:31;3.17;;;2.97;;
19006;SDS011;9636;47.382;8.480;2023-05-20T08:57:42;2.67;;;2.47;;
19006;SDS011;9636;47.382;8.480;2023-05-20T09:00:21;2.97;;;2.78;;
19006;SDS011;9636;47.382;8.480;2023-05-20T09:03:07;3.13;;;2.92;;
19006;SDS011;9636;47.382;8.480;2023-05-20T09:08:23;2.92;;;2.72;;
19006;SDS011;9636;47.382;8.480;2023-05-20T09:10:53;4.53;;;3.10;;
19006;SDS011;9636;47.382;8.480;2023-05-20T09:13:26;3.03;;;2.83;;
19006;SDS011;9636;47.382;8.480;2023-05-20T09:15:56;2.92;;;2.65;;
19006;SDS011;9636;47.382;8.480;2023-05-20T09:18:25;2.92;;;2.72;;
19006;SDS011;9636;47.382;8.480;2023-05-20T09:21:24;2.75;;;2.55;;
19006;SDS011;9636;47.382;8.480;2023-05-20T09:23:52;3.13;;;2.83;;
19006;SDS011;9636;47.382;8.480;2023-05-20T09:26:21;2.92;;;2.72;;
19006;SDS011;9636;47.382;8.480;2023-05-20T09:28:50;2.50;;;2.30;;
19006;SDS011;9636;47.382;8.480;2023-05-20T09:31:17;2.80;;;2.60;;
19006;SDS011;9636;47.382;8.480;2023-05-20T09:33:44;2.92;;;2.72;;
19006;SDS011;9636;47.382;8.480;2023-05-20T09:36:11;3.17;;;2.90;;
19006;SDS011;9636;47.382;8.480;2023-05-20T09:38:39;2.58;;;2.38;;
19006;SDS011;9636;47.382;8.480;2023-05-20T09:41:08;2.95;;;2.60;;
19006;SDS011;9636;47.382;8.480;2023-05-20T09:43:37;3.03;;;2.80;;
19006;SDS011;9636;47.382;8.480;2023-05-20T09:46:07;3.33;;;2.90;;
19006;SDS011;9636;47.382;8.480;2023-05-20T09:48:34;3.28;;;2.67;;
19006;SDS011;9636;47.382;8.480;2023-05-20T09:51:01;2.90;;;2.70;;
19006;SDS011;9636;47.382;8.480;2023-05-20T09:53:29;2.78;;;2.58;;
19006;SDS011;9636;47.382;8.480;2023-05-20T09:55:56;2.83;;;2.60;;
19006;SDS011;9636;47.382;8.480;2023-05-20T09:58:23;2.90;;;2.70;;
19006;SDS011;9636;47.382;8.480;2023-05-20T10:00:51;2.88;;;2.67;;
19006;SDS011;9636;47.382;8.480;2023-05-20T10:03:19;2.65;;;2.45;;
19006;SDS011;9636;47.382;8.480;2023-05-20T10:05:48;2.80;;;2.60;;
19006;SDS011;9636;47.382;8.480;2023-05-20T15:47:03;2.70;;;2.50;;
19006;SDS011;9636;47.382;8.480;2023-05-20T15:59:32;2.25;;;2.15;;
19006;SDS011;9636;47.382;8.480;2023-05-20T16:21:53;2.50;;;2.30;;
19006;SDS011;9636;47.382;8.480;2023-05-20T16:24:35;2.28;;;2.17;;
19006;SDS011;9636;47.382;8.480;2023-05-20T16:27:02;2.50;;;2.30;;
19006;SDS011;9636;47.382;8.480;2023-05-20T16:29:31;2.30;;;2.10;;
19006;SDS011;9636;47.382;8.480;2023-05-20T16:31:59;2.10;;;2.00;;
19006;SDS011;9636;47.382;8.480;2023-05-20T19:14:59;2.40;;;2.20;;
19006;SDS011;9636;47.382;8.480;2023-05-20T19:17:26;2.47;;;2.28;;
19006;SDS011;9636;47.382;8.480;2023-05-20T19:19:53;2.13;;;2.03;;
19006;SDS011;9636;47.382;8.480;2023-05-20T19:22:20;2.20;;;2.10;;
19006;SDS011;9636;47.382;8.480;2023-05-20T19:24:47;3.80;;;2.30;;
19006;SDS011;9636;47.382;8.480;2023-05-20T19:27:13;2.47;;;2.28;;
19006;SDS011;9636;47.382;8.480;2023-05-20T19:29:40;2.30;;;2.20;;
19006;SDS011;9636;47.382;8.480;2023-05-20T19:32:08;2.60;;;2.40;;
19006;SDS011;9636;47.382;8.480;2023-05-20T19:34:35;2.60;;;2.40;;
19006;SDS011;9636;47.382;8.480;2023-05-20T19:37:02;2.28;;;2.17;;
19006;SDS011;9636;47.382;8.480;2023-05-20T19:39:29;2.45;;;2.28;;
19006;SDS011;9636;47.382;8.480;2023-05-20T19:41:56;2.28;;;2.10;;
19006;SDS011;9636;47.382;8.480;2023-05-20T19:57:33;2.20;;;2.10;;
19006;SDS011;9636;47.382;8.480;2023-05-20T20:00:00;2.67;;;2.08;;
19006;SDS011;9636;47.382;8.480;2023-05-20T20:02:28;2.50;;;2.30;;
19006;SDS011;9636;47.382;8.480;2023-05-20T20:04:55;2.30;;;2.10;;
19006;SDS011;9636;47.382;8.480;2023-05-20T20:07:34;2.05;;;1.95;;
19006;SDS011;9636;47.382;8.480;2023-05-20T20:10:37;3.55;;;2.20;;
19006;SDS011;9636;47.382;8.480;2023-05-20T20:18:09;2.72;;;2.20;;
19006;SDS011;9636;47.382;8.480;2023-05-20T20:23:46;2.38;;;2.20;;
19006;SDS011;9636;47.382;8.480;2023-05-20T20:26:17;2.10;;;2.00;;
19006;SDS011;9636;47.382;8.480;2023-05-20T20:28:49;2.65;;;2.45;;
19006;SDS011;9636;47.382;8.480;2023-05-20T20:31:16;2.45;;;2.22;;
19006;SDS011;9636;47.382;8.480;2023-05-20T20:33:49;3.38;;;2.70;;
19006;SDS011;9636;47.382;8.480;2023-05-20T20:36:24;2.53;;;2.33;;
19006;SDS011;9636;47.382;8.480;2023-05-20T20:38:56;3.00;;;2.72;;
19006;SDS011;9636;47.382;8.480;2023-05-20T20:41:30;2.50;;;2.35;;
19006;SDS011;9636;47.382;8.480;2023-05-20T20:43:58;2.40;;;2.20;;
19006;SDS011;9636;47.382;8.480;2023-05-20T20:46:30;2.25;;;2.00;;
19006;SDS011;9636;47.382;8.480;2023-05-20T20:49:01;2.55;;;2.35;;
19006;SDS011;9636;47.382;8.480;2023-05-20T20:51:28;2.70;;;2.50;;
19006;SDS011;9636;47.382;8.480;2023-05-20T20:54:09;2.58;;;2.38;;
19006;SDS011;9636;47.382;8.480;2023-05-20T20:56:37;3.00;;;2.45;;
19006;SDS011;9636;47.382;8.480;2023-05-20T20:59:05;2.30;;;2.10;;
19006;SDS011;9636;47.382;8.480;2023-05-20T21:01:34;2.25;;;2.13;;
19006;SDS011;9636;47.382;8.480;2023-05-20T21:04:06;2.22;;;2.03;;
19006;SDS011;9636;47.382;8.480;2023-05-20T21:06:37;3.17;;;2.40;;
19006;SDS011;9636;47.382;8.480;2023-05-20T21:09:06;2.20;;;2.00;;
19006;SDS011;9636;47.382;8.480;2023-05-20T21:11:34;2.63;;;2.30;;
19006;SDS011;9636;47.382;8.480;2023-05-20T21:14:06;2.50;;;2.38;;
19006;SDS011;9636;47.382;8.480;2023-05-20T21:16:33;2.35;;;2.17;;
19006;SDS011;9636;47.382;8.480;2023-05-20T21:19:00;2.58;;;2.38;;
19006;SDS011;9636;47.382;8.480;2023-05-20T21:21:27;2.63;;;2.42;;
19006;SDS011;9636;47.382;8.480;2023-05-20T21:23:54;2.40;;;2.20;;
19006;SDS011;9636;47.382;8.480;2023-05-20T21:26:21;3.17;;;2.35;;
19006;SDS011;9636;47.382;8.480;2023-05-20T21:29:10;2.70;;;2.50;;
19006;SDS011;9636;47.382;8.480;2023-05-20T21:32:09;3.22;;;2.25;;
19006;SDS011;9636;47.382;8.480;2023-05-20T21:34:38;2.47;;;2.28;;
19006;SDS011;9636;47.382;8.480;2023-05-20T21:37:05;2.40;;;2.20;;
19006;SDS011;9636;47.382;8.480;2023-05-20T21:39:38;3.05;;;2.60;;
19006;SDS011;9636;47.382;8.480;2023-05-20T21:42:05;2.67;;;2.40;;
19006;SDS011;9636;47.382;8.480;2023-05-20T21:44:34;2.80;;;2.60;;
19006;SDS011;9636;47.382;8.480;2023-05-20T21:47:04;3.25;;;2.42;;
19006;SDS011;9636;47.382;8.480;2023-05-20T21:49:45;2.60;;;2.40;;
19006;SDS011;9636;47.382;8.480;2023-05-20T21:52:28;2.42;;;2.22;;
19006;SDS011;9636;47.382;8.480;2023-05-20T21:54:55;2.50;;;2.30;;
19006;SDS011;9636;47.382;8.480;2023-05-20T21:57:22;2.60;;;2.40;;
19006;SDS011;9636;47.382;8.480;2023-05-20T21:59:52;2.50;;;2.30;;
19006;SDS011;9636;47.382;8.480;2023-05-20T22:02:19;2.60;;;2.40;;
19006;SDS011;9636;47.382;8.480;2023-05-20T22:07:55;2.92;;;2.30;;
19006;SDS011;9636;47.382;8.480;2023-05-20T22:10:24;2.30;;;2.10;;
19006;SDS011;9636;47.382;8.480;2023-05-20T22:13:00;3.85;;;2.53;;
19006;SDS011;9636;47.382;8.480;2023-05-20T22:15:32;3.08;;;2.42;;
19006;SDS011;9636;47.382;8.480;2023-05-20T22:18:01;2.90;;;2.70;;
19006;SDS011;9636;47.382;8.480;2023-05-20T22:20:29;4.68;;;2.60;;
19006;SDS011;9636;47.382;8.480;2023-05-20T22:23:00;4.30;;;2.50;;
19006;SDS011;9636;47.382;8.480;2023-05-20T22:25:29;2.67;;;2.47;;
19006;SDS011;9636;47.382;8.480;2023-05-20T22:27:56;2.58;;;2.38;;
19006;SDS011;9636;47.382;8.480;2023-05-20T22:30:30;2.50;;;2.30;;
19006;SDS011;9636;47.382;8.480;2023-05-20T22:32:57;2.80;;;2.60;;
19006;SDS011;9636;47.382;8.480;2023-05-20T22:35:28;2.70;;;2.50;;
19006;SDS011;9636;47.382;8.480;2023-05-20T22:37:58;2.30;;;2.15;;
19006;SDS011;9636;47.382;8.480;2023-05-20T22:40:25;2.65;;;2.45;;
19006;SDS011;9636;47.382;8.480;2023-05-20T22:42:52;3.50;;;2.40;;
19006;SDS011;9636;47.382;8.480;2023-05-20T22:45:19;2.80;;;2.60;;
19006;SDS011;9636;47.382;8.480;2023-05-20T22:47:52;3.50;;;2.40;;
19006;SDS011;9636;47.382;8.480;2023-05-20T22:50:21;2.45;;;2.25;;
19006;SDS011;9636;47.382;8.480;2023-05-20T22:52:50;2.72;;;2.53;;
19006;SDS011;9636;47.382;8.480;2023-05-20T22:55:23;2.70;;;2.50;;
19006;SDS011;9636;47.382;8.480;2023-05-20T22:57:49;3.35;;;2.78;;
19006;SDS011;9636;47.382;8.480;2023-05-20T23:00:41;2.60;;;2.40;;
19006;SDS011;9636;47.382;8.480;2023-05-20T23:03:14;3.35;;;2.58;;
19006;SDS011;9636;47.382;8.480;2023-05-20T23:05:44;2.95;;;2.70;;
19006;SDS011;9636;47.382;8.480;2023-05-20T23:08:17;3.47;;;2.40;;
19006;SDS011;9636;47.382;8.480;2023-05-20T23:10:44;2.60;;;2.40;;
19006;SDS011;9636;47.382;8.480;2023-05-20T23:13:11;2.70;;;2.50;;
19006;SDS011;9636;47.382;8.480;2023-05-20T23:15:43;2.60;;;2.40;;
19006;SDS011;9636;47.382;8.480;2023-05-20T23:18:18;3.53;;;2.40;;
19006;SDS011;9636;47.382;8.480;2023-05-20T23:20:47;2.67;;;2.47;;
19006;SDS011;9636;47.382;8.480;2023-05-20T23:23:18;2.60;;;2.40;;
19006;SDS011;9636;47.382;8.480;2023-05-20T23:25:51;3.10;;;2.40;;
19006;SDS011;9636;47.382;8.480;2023-05-20T23:28:21;3.15;;;2.60;;
19006;SDS011;9636;47.382;8.480;2023-05-20T23:30:54;3.00;;;2.70;;
19006;SDS011;9636;47.382;8.480;2023-05-20T23:33:25;2.65;;;2.45;;
19006;SDS011;9636;47.382;8.480;2023-05-20T23:35:55;2.75;;;2.55;;
19006;SDS011;9636;47.382;8.480;2023-05-20T23:38:24;2.53;;;2.33;;
19006;SDS011;9636;47.382;8.480;2023-05-20T23:40:51;2.78;;;2.58;;
19006;SDS011;9636;47.382;8.480;2023-05-20T23:43:22;2.80;;;2.60;;
19006;SDS011;9636;47.382;8.480;2023-05-20T23:45:49;2.70;;;2.50;;
19006;SDS011;9636;47.382;8.480;2023-05-20T23:48:17;2.80;;;2.60;;
19006;SDS011;9636;47.382;8.480;2023-05-20T23:50:51;3.03;;;2.72;;
19006;SDS011;9636;47.382;8.480;2023-05-20T23:53:19;3.42;;;2.67;;
19006;SDS011;9636;47.382;8.480;2023-05-20T23:55:47;2.67;;;2.47;;
19006;SDS011;9636;47.382;8.480;2023-05-20T23:58:14;2.70;;;2.50;;
